sensor_id;sensor_type;location;lat;lon;timestamp;P1;durP1;ratioP1;P2;durP2;ratioP2
22184;SDS011;11258;52.516;13.318;2023-07-22T00:02:02;5.10;;;4.18;;
22184;SDS011;11258;52.516;13.318;2023-07-22T00:04:28;4.50;;;4.10;;
22184;SDS011;11258;52.516;13.318;2023-07-22T00:06:54;5.25;;;4.07;;
22184;SDS011;11258;52.516;13.318;2023-07-22T00:09:19;4.32;;;3.67;;
22184;SDS011;11258;52.516;13.318;2023-07-22T00:11:45;4.07;;;3.50;;
22184;SDS011;11258;52.516;13.318;2023-07-22T00:14:10;4.22;;;3.83;;
22184;SDS011;11258;52.516;13.318;2023-07-22T00:16:36;4.75;;;4.25;;
22184;SDS011;11258;52.516;13.318;2023-07-22T00:19:02;4.05;;;3.65;;
22184;SDS011;11258;52.516;13.318;2023-07-22T00:21:28;4.63;;;3.50;;
22184;SDS011;11258;52.516;13.318;2023-07-22T00:23:54;5.20;;;4.70;;
22184;SDS011;11258;52.516;13.318;2023-07-22T00:26:19;4.55;;;4.13;;
22184;SDS011;11258;52.516;13.318;2023-07-22T00:28:45;7.88;;;4.18;;
22184;SDS011;11258;52.516;13.318;2023-07-22T00:31:11;4.43;;;4.03;;
22184;SDS011;11258;52.516;13.318;2023-07-22T00:33:36;5.00;;;4.05;;
22184;SDS011;11258;52.516;13.318;2023-07-22T00:36:02;5.00;;;3.97;;
22184;SDS011;11258;52.516;13.318;2023-07-22T00:38:28;4.68;;;4.10;;
22184;SDS011;11258;52.516;13.318;2023-07-22T00:40:53;4.80;;;4.30;;
22184;SDS011;11258;52.516;13.318;2023-07-22T00:43:19;3.97;;;3.53;;
22184;SDS011;11258;52.516;13.318;2023-07-22T00:45:45;4.25;;;3.85;;
22184;SDS011;11258;52.516;13.318;2023-07-22T00:48:10;4.57;;;4.13;;
22184;SDS011;11258;52.516;13.318;2023-07-22T00:50:38;4.88;;;3.78;;
22184;SDS011;11258;52.516;13.318;2023-07-22T00:53:04;4.63;;;3.78;;
22184;SDS011;11258;52.516;13.318;2023-07-22T00:55:30;4.40;;;3.97;;
22184;SDS011;11258;52.516;13.318;2023-07-22T00:57:59;4.45;;;4.05;;
22184;SDS011;11258;52.516;13.318;2023-07-22T01:00:24;6.30;;;3.88;;
22184;SDS011;11258;52.516;13.318;2023-07-22T01:02:50;4.32;;;3.83;;
22184;SDS011;11258;52.516;13.318;2023-07-22T01:05:15;4.90;;;4.20;;
22184;SDS011;11258;52.516;13.318;2023-07-22T01:07:41;4.85;;;3.88;;
22184;SDS011;11258;52.516;13.318;2023-07-22T01:10:07;4.45;;;4.03;;
22184;SDS011;11258;52.516;13.318;2023-07-22T01:12:33;7.63;;;3.90;;
22184;SDS011;11258;52.516;13.318;2023-07-22T01:14:59;5.25;;;4.38;;
22184;SDS011;11258;52.516;13.318;2023-07-22T01:17:25;5.57;;;4.05;;
22184;SDS011;11258;52.516;13.318;2023-07-22T01:19:51;5.32;;;4.30;;
22184;SDS011;11258;52.516;13.318;2023-07-22T01:22:17;4.72;;;4.22;;
22184;SDS011;11258;52.516;13.318;2023-07-22T01:24:44;5.75;;;4.45;;
22184;SDS011;11258;52.516;13.318;2023-07-22T01:27:11;6.82;;;4.50;;
22184;SDS011;11258;52.516;13.318;2023-07-22T01:29:38;5.32;;;4.30;;
22184;SDS011;11258;52.516;13.318;2023-07-22T01:32:04;4.50;;;4.15;;
22184;SDS011;11258;52.516;13.318;2023-07-22T01:34:30;5.32;;;4.75;;
22184;SDS011;11258;52.516;13.318;2023-07-22T01:36:56;4.45;;;4.05;;
22184;SDS011;11258;52.516;13.318;2023-07-22T01:39:22;5.30;;;4.80;;
22184;SDS011;11258;52.516;13.318;2023-07-22T01:41:48;5.15;;;4.65;;
22184;SDS011;11258;52.516;13.318;2023-07-22T01:44:14;7.30;;;4.50;;
22184;SDS011;11258;52.516;13.318;2023-07-22T01:46:40;6.15;;;4.95;;
22184;SDS011;11258;52.516;13.318;2023-07-22T01:49:07;4.95;;;4.35;;
22184;SDS011;11258;52.516;13.318;2023-07-22T01:51:35;5.40;;;4.72;;
22184;SDS011;11258;52.516;13.318;2023-07-22T01:54:02;6.18;;;4.85;;
22184;SDS011;11258;52.516;13.318;2023-07-22T01:56:29;5.63;;;5.13;;
22184;SDS011;11258;52.516;13.318;2023-07-22T01:58:54;5.30;;;4.63;;
22184;SDS011;11258;52.516;13.318;2023-07-22T02:01:20;5.45;;;4.38;;
22184;SDS011;11258;52.516;13.318;2023-07-22T02:03:45;6.43;;;4.70;;
22184;SDS011;11258;52.516;13.318;2023-07-22T02:06:11;7.30;;;4.53;;
22184;SDS011;11258;52.516;13.318;2023-07-22T02:08:37;5.60;;;4.35;;
22184;SDS011;11258;52.516;13.318;2023-07-22T02:11:04;5.55;;;4.28;;
22184;SDS011;11258;52.516;13.318;2023-07-22T02:13:32;6.15;;;4.68;;
22184;SDS011;11258;52.516;13.318;2023-07-22T02:15:59;5.25;;;4.75;;
22184;SDS011;11258;52.516;13.318;2023-07-22T02:18:26;7.60;;;4.18;;
22184;SDS011;11258;52.516;13.318;2023-07-22T02:20:52;6.22;;;3.97;;
22184;SDS011;11258;52.516;13.318;2023-07-22T02:23:18;6.60;;;4.43;;
22184;SDS011;11258;52.516;13.318;2023-07-22T02:25:44;4.55;;;4.05;;
22184;SDS011;11258;52.516;13.318;2023-07-22T02:28:14;5.85;;;4.55;;
22184;SDS011;11258;52.516;13.318;2023-07-22T02:30:40;5.07;;;4.03;;
22184;SDS011;11258;52.516;13.318;2023-07-22T02:33:06;4.45;;;4.00;;
22184;SDS011;11258;52.516;13.318;2023-07-22T02:35:33;4.10;;;3.80;;
22184;SDS011;11258;52.516;13.318;2023-07-22T02:37:59;5.50;;;3.70;;
22184;SDS011;11258;52.516;13.318;2023-07-22T02:40:24;5.18;;;3.85;;
22184;SDS011;11258;52.516;13.318;2023-07-22T02:42:50;6.53;;;3.50;;
22184;SDS011;11258;52.516;13.318;2023-07-22T02:45:16;5.45;;;4.07;;
22184;SDS011;11258;52.516;13.318;2023-07-22T02:47:42;8.48;;;4.35;;
22184;SDS011;11258;52.516;13.318;2023-07-22T02:50:07;4.85;;;3.63;;
22184;SDS011;11258;52.516;13.318;2023-07-22T02:52:34;5.70;;;3.70;;
22184;SDS011;11258;52.516;13.318;2023-07-22T02:55:10;7.35;;;4.28;;
22184;SDS011;11258;52.516;13.318;2023-07-22T02:57:37;4.65;;;4.18;;
22184;SDS011;11258;52.516;13.318;2023-07-22T03:00:04;4.10;;;3.70;;
22184;SDS011;11258;52.516;13.318;2023-07-22T03:02:37;3.80;;;3.50;;
22184;SDS011;11258;52.516;13.318;2023-07-22T03:05:04;5.03;;;4.10;;
22184;SDS011;11258;52.516;13.318;2023-07-22T03:07:33;4.50;;;3.95;;
22184;SDS011;11258;52.516;13.318;2023-07-22T03:09:59;4.93;;;3.25;;
22184;SDS011;11258;52.516;13.318;2023-07-22T03:12:25;3.72;;;3.40;;
22184;SDS011;11258;52.516;13.318;2023-07-22T03:14:52;4.40;;;3.90;;
22184;SDS011;11258;52.516;13.318;2023-07-22T03:17:18;4.07;;;3.67;;
22184;SDS011;11258;52.516;13.318;2023-07-22T03:19:44;6.82;;;4.00;;
22184;SDS011;11258;52.516;13.318;2023-07-22T03:22:10;4.53;;;3.50;;
22184;SDS011;11258;52.516;13.318;2023-07-22T03:24:39;7.15;;;3.65;;
22184;SDS011;11258;52.516;13.318;2023-07-22T03:27:05;5.65;;;3.95;;
22184;SDS011;11258;52.516;13.318;2023-07-22T03:29:31;4.22;;;3.83;;
22184;SDS011;11258;52.516;13.318;2023-07-22T03:31:57;5.95;;;4.35;;
22184;SDS011;11258;52.516;13.318;2023-07-22T03:34:24;4.43;;;4.03;;
22184;SDS011;11258;52.516;13.318;2023-07-22T03:36:51;4.13;;;3.72;;
22184;SDS011;11258;52.516;13.318;2023-07-22T03:39:17;5.68;;;3.95;;
22184;SDS011;11258;52.516;13.318;2023-07-22T03:41:42;4.40;;;4.05;;
22184;SDS011;11258;52.516;13.318;2023-07-22T03:44:08;6.93;;;3.63;;
22184;SDS011;11258;52.516;13.318;2023-07-22T03:46:34;6.18;;;4.03;;
22184;SDS011;11258;52.516;13.318;2023-07-22T03:48:59;3.97;;;3.47;;
22184;SDS011;11258;52.516;13.318;2023-07-22T03:51:25;3.72;;;3.42;;
22184;SDS011;11258;52.516;13.318;2023-07-22T03:53:51;4.95;;;3.67;;
22184;SDS011;11258;52.516;13.318;2023-07-22T03:56:16;4.65;;;3.13;;
22184;SDS011;11258;52.516;13.318;2023-07-22T03:58:42;4.10;;;3.25;;
22184;SDS011;11258;52.516;13.318;2023-07-22T04:01:10;4.38;;;3.25;;
22184;SDS011;11258;52.516;13.318;2023-07-22T04:03:36;6.28;;;3.17;;
22184;SDS011;11258;52.516;13.318;2023-07-22T04:06:02;3.60;;;3.03;;
22184;SDS011;11258;52.516;13.318;2023-07-22T04:08:28;3.65;;;2.85;;
22184;SDS011;11258;52.516;13.318;2023-07-22T04:10:57;4.22;;;3.13;;
22184;SDS011;11258;52.516;13.318;2023-07-22T04:13:23;3.92;;;3.03;;
22184;SDS011;11258;52.516;13.318;2023-07-22T04:15:50;3.42;;;2.85;;
22184;SDS011;11258;52.516;13.318;2023-07-22T04:18:16;11.20;;;8.38;;
22184;SDS011;11258;52.516;13.318;2023-07-22T04:20:43;10.63;;;7.70;;
22184;SDS011;11258;52.516;13.318;2023-07-22T04:23:09;8.70;;;5.47;;
22184;SDS011;11258;52.516;13.318;2023-07-22T04:25:41;4.03;;;3.10;;
22184;SDS011;11258;52.516;13.318;2023-07-22T04:28:08;4.20;;;3.45;;
22184;SDS011;11258;52.516;13.318;2023-07-22T04:30:37;4.85;;;3.33;;
22184;SDS011;11258;52.516;13.318;2023-07-22T04:33:04;5.30;;;3.35;;
22184;SDS011;11258;52.516;13.318;2023-07-22T04:35:35;4.25;;;2.97;;
22184;SDS011;11258;52.516;13.318;2023-07-22T04:38:06;3.85;;;2.92;;
22184;SDS011;11258;52.516;13.318;2023-07-22T04:40:31;6.18;;;3.75;;
22184;SDS011;11258;52.516;13.318;2023-07-22T04:42:57;2.88;;;2.47;;
22184;SDS011;11258;52.516;13.318;2023-07-22T04:45:23;3.45;;;2.40;;
22184;SDS011;11258;52.516;13.318;2023-07-22T04:47:49;2.78;;;2.53;;
22184;SDS011;11258;52.516;13.318;2023-07-22T04:50:16;3.75;;;2.17;;
22184;SDS011;11258;52.516;13.318;2023-07-22T04:52:42;2.40;;;2.20;;
22184;SDS011;11258;52.516;13.318;2023-07-22T04:55:12;2.38;;;2.17;;
22184;SDS011;11258;52.516;13.318;2023-07-22T04:57:38;2.80;;;2.20;;
22184;SDS011;11258;52.516;13.318;2023-07-22T05:00:10;2.78;;;2.40;;
22184;SDS011;11258;52.516;13.318;2023-07-22T05:02:41;2.88;;;2.30;;
22184;SDS011;11258;52.516;13.318;2023-07-22T05:05:09;3.13;;;2.33;;
22184;SDS011;11258;52.516;13.318;2023-07-22T05:07:35;4.07;;;3.00;;
22184;SDS011;11258;52.516;13.318;2023-07-22T05:10:00;3.85;;;2.92;;
22184;SDS011;11258;52.516;13.318;2023-07-22T05:12:26;4.30;;;2.40;;
22184;SDS011;11258;52.516;13.318;2023-07-22T05:14:52;3.28;;;2.72;;
22184;SDS011;11258;52.516;13.318;2023-07-22T05:17:17;3.00;;;2.65;;
22184;SDS011;11258;52.516;13.318;2023-07-22T05:19:43;5.07;;;3.13;;
22184;SDS011;11258;52.516;13.318;2023-07-22T05:22:08;5.57;;;3.05;;
22184;SDS011;11258;52.516;13.318;2023-07-22T05:24:34;3.95;;;2.90;;
22184;SDS011;11258;52.516;13.318;2023-07-22T05:27:00;5.22;;;2.72;;
22184;SDS011;11258;52.516;13.318;2023-07-22T05:29:25;3.60;;;3.10;;
22184;SDS011;11258;52.516;13.318;2023-07-22T05:31:51;4.10;;;3.28;;
22184;SDS011;11258;52.516;13.318;2023-07-22T05:34:16;3.83;;;2.97;;
22184;SDS011;11258;52.516;13.318;2023-07-22T05:36:42;4.40;;;3.65;;
22184;SDS011;11258;52.516;13.318;2023-07-22T05:39:08;4.57;;;3.63;;
22184;SDS011;11258;52.516;13.318;2023-07-22T05:41:33;4.65;;;3.45;;
22184;SDS011;11258;52.516;13.318;2023-07-22T05:43:59;5.72;;;3.72;;
22184;SDS011;11258;52.516;13.318;2023-07-22T05:46:25;6.18;;;4.05;;
22184;SDS011;11258;52.516;13.318;2023-07-22T05:48:51;5.95;;;4.43;;
22184;SDS011;11258;52.516;13.318;2023-07-22T05:51:17;5.00;;;4.03;;
22184;SDS011;11258;52.516;13.318;2023-07-22T05:53:43;6.30;;;5.00;;
22184;SDS011;11258;52.516;13.318;2023-07-22T05:56:08;9.93;;;4.57;;
22184;SDS011;11258;52.516;13.318;2023-07-22T05:58:34;4.97;;;4.18;;
22184;SDS011;11258;52.516;13.318;2023-07-22T06:01:00;5.93;;;4.68;;
22184;SDS011;11258;52.516;13.318;2023-07-22T06:03:26;6.30;;;4.63;;
22184;SDS011;11258;52.516;13.318;2023-07-22T06:05:52;6.85;;;4.78;;
22184;SDS011;11258;52.516;13.318;2023-07-22T06:08:17;6.35;;;4.22;;
22184;SDS011;11258;52.516;13.318;2023-07-22T06:10:43;4.88;;;3.67;;
22184;SDS011;11258;52.516;13.318;2023-07-22T06:13:09;5.50;;;3.95;;
22184;SDS011;11258;52.516;13.318;2023-07-22T06:15:34;5.38;;;4.40;;
22184;SDS011;11258;52.516;13.318;2023-07-22T06:18:00;5.78;;;4.30;;
22184;SDS011;11258;52.516;13.318;2023-07-22T06:20:26;7.18;;;4.60;;
22184;SDS011;11258;52.516;13.318;2023-07-22T06:22:53;6.43;;;4.47;;
22184;SDS011;11258;52.516;13.318;2023-07-22T06:25:19;6.35;;;4.03;;
22184;SDS011;11258;52.516;13.318;2023-07-22T06:27:45;7.00;;;4.25;;
22184;SDS011;11258;52.516;13.318;2023-07-22T06:30:11;6.75;;;4.30;;
22184;SDS011;11258;52.516;13.318;2023-07-22T06:32:37;6.40;;;4.47;;
22184;SDS011;11258;52.516;13.318;2023-07-22T06:35:04;5.68;;;4.25;;
22184;SDS011;11258;52.516;13.318;2023-07-22T06:37:30;7.60;;;4.22;;
22184;SDS011;11258;52.516;13.318;2023-07-22T06:39:56;4.63;;;4.03;;
22184;SDS011;11258;52.516;13.318;2023-07-22T06:42:21;6.07;;;4.00;;
22184;SDS011;11258;52.516;13.318;2023-07-22T06:44:47;6.30;;;4.38;;
22184;SDS011;11258;52.516;13.318;2023-07-22T06:47:13;5.00;;;3.25;;
22184;SDS011;11258;52.516;13.318;2023-07-22T06:49:39;6.47;;;3.75;;
22184;SDS011;11258;52.516;13.318;2023-07-22T06:52:06;5.57;;;3.70;;
22184;SDS011;11258;52.516;13.318;2023-07-22T06:54:32;8.10;;;3.65;;
22184;SDS011;11258;52.516;13.318;2023-07-22T06:56:57;8.60;;;3.92;;
22184;SDS011;11258;52.516;13.318;2023-07-22T06:59:23;5.13;;;4.05;;
22184;SDS011;11258;52.516;13.318;2023-07-22T07:01:49;6.47;;;3.58;;
22184;SDS011;11258;52.516;13.318;2023-07-22T07:04:14;5.20;;;3.50;;
22184;SDS011;11258;52.516;13.318;2023-07-22T07:06:40;4.72;;;3.03;;
22184;SDS011;11258;52.516;13.318;2023-07-22T07:09:05;5.40;;;3.05;;
22184;SDS011;11258;52.516;13.318;2023-07-22T07:11:31;5.00;;;2.97;;
22184;SDS011;11258;52.516;13.318;2023-07-22T07:13:57;4.18;;;2.90;;
22184;SDS011;11258;52.516;13.318;2023-07-22T07:16:24;6.13;;;3.15;;
22184;SDS011;11258;52.516;13.318;2023-07-22T07:18:51;4.88;;;2.90;;
22184;SDS011;11258;52.516;13.318;2023-07-22T07:21:21;6.07;;;3.00;;
22184;SDS011;11258;52.516;13.318;2023-07-22T07:23:47;4.28;;;2.88;;
22184;SDS011;11258;52.516;13.318;2023-07-22T07:26:13;5.18;;;3.22;;
22184;SDS011;11258;52.516;13.318;2023-07-22T07:28:40;6.13;;;3.67;;
22184;SDS011;11258;52.516;13.318;2023-07-22T07:31:06;6.20;;;3.83;;
22184;SDS011;11258;52.516;13.318;2023-07-22T07:33:32;8.77;;;3.88;;
22184;SDS011;11258;52.516;13.318;2023-07-22T07:35:58;7.40;;;3.75;;
22184;SDS011;11258;52.516;13.318;2023-07-22T07:38:24;6.32;;;3.50;;
22184;SDS011;11258;52.516;13.318;2023-07-22T07:40:55;4.18;;;3.13;;
22184;SDS011;11258;52.516;13.318;2023-07-22T07:43:22;5.10;;;3.35;;
22184;SDS011;11258;52.516;13.318;2023-07-22T07:45:47;7.22;;;3.25;;
22184;SDS011;11258;52.516;13.318;2023-07-22T07:48:13;8.55;;;3.28;;
22184;SDS011;11258;52.516;13.318;2023-07-22T07:50:38;5.28;;;3.42;;
22184;SDS011;11258;52.516;13.318;2023-07-22T07:53:10;4.82;;;3.28;;
22184;SDS011;11258;52.516;13.318;2023-07-22T07:55:36;6.75;;;3.20;;
22184;SDS011;11258;52.516;13.318;2023-07-22T07:58:01;4.40;;;3.05;;
22184;SDS011;11258;52.516;13.318;2023-07-22T08:00:27;3.97;;;3.15;;
22184;SDS011;11258;52.516;13.318;2023-07-22T08:02:53;6.80;;;3.22;;
22184;SDS011;11258;52.516;13.318;2023-07-22T08:05:18;6.80;;;3.70;;
22184;SDS011;11258;52.516;13.318;2023-07-22T08:07:44;5.13;;;3.40;;
22184;SDS011;11258;52.516;13.318;2023-07-22T08:10:09;5.45;;;3.80;;
22184;SDS011;11258;52.516;13.318;2023-07-22T08:12:35;4.13;;;3.38;;
22184;SDS011;11258;52.516;13.318;2023-07-22T08:15:02;7.13;;;3.30;;
22184;SDS011;11258;52.516;13.318;2023-07-22T08:17:28;6.82;;;3.60;;
22184;SDS011;11258;52.516;13.318;2023-07-22T08:19:54;3.97;;;3.55;;
22184;SDS011;11258;52.516;13.318;2023-07-22T08:22:19;5.70;;;4.07;;
22184;SDS011;11258;52.516;13.318;2023-07-22T08:24:45;4.63;;;3.70;;
22184;SDS011;11258;52.516;13.318;2023-07-22T08:27:11;4.97;;;3.67;;
22184;SDS011;11258;52.516;13.318;2023-07-22T08:29:36;6.38;;;3.97;;
22184;SDS011;11258;52.516;13.318;2023-07-22T08:32:02;6.28;;;3.90;;
22184;SDS011;11258;52.516;13.318;2023-07-22T08:34:28;6.55;;;4.13;;
22184;SDS011;11258;52.516;13.318;2023-07-22T08:36:54;5.80;;;3.83;;
22184;SDS011;11258;52.516;13.318;2023-07-22T08:39:19;6.05;;;4.05;;
22184;SDS011;11258;52.516;13.318;2023-07-22T08:41:47;10.23;;;4.43;;
22184;SDS011;11258;52.516;13.318;2023-07-22T08:44:16;7.80;;;3.85;;
22184;SDS011;11258;52.516;13.318;2023-07-22T08:46:46;6.55;;;4.65;;
22184;SDS011;11258;52.516;13.318;2023-07-22T08:49:12;8.23;;;4.43;;
22184;SDS011;11258;52.516;13.318;2023-07-22T08:51:40;9.02;;;4.32;;
22184;SDS011;11258;52.516;13.318;2023-07-22T08:54:06;7.22;;;3.95;;
22184;SDS011;11258;52.516;13.318;2023-07-22T08:56:33;5.88;;;4.00;;
22184;SDS011;11258;52.516;13.318;2023-07-22T08:59:00;7.10;;;4.65;;
22184;SDS011;11258;52.516;13.318;2023-07-22T09:01:26;8.20;;;3.97;;
22184;SDS011;11258;52.516;13.318;2023-07-22T09:03:52;6.25;;;3.55;;
22184;SDS011;11258;52.516;13.318;2023-07-22T09:06:19;6.97;;;3.83;;
22184;SDS011;11258;52.516;13.318;2023-07-22T09:08:45;7.10;;;4.57;;
22184;SDS011;11258;52.516;13.318;2023-07-22T09:11:11;12.43;;;8.18;;
22184;SDS011;11258;52.516;13.318;2023-07-22T09:13:38;6.38;;;3.65;;
22184;SDS011;11258;52.516;13.318;2023-07-22T09:16:05;5.93;;;3.50;;
22184;SDS011;11258;52.516;13.318;2023-07-22T09:18:34;4.75;;;3.40;;
22184;SDS011;11258;52.516;13.318;2023-07-22T09:21:00;6.18;;;3.70;;
22184;SDS011;11258;52.516;13.318;2023-07-22T09:23:46;5.15;;;4.00;;
22184;SDS011;11258;52.516;13.318;2023-07-22T09:26:12;5.70;;;3.70;;
22184;SDS011;11258;52.516;13.318;2023-07-22T09:28:52;4.93;;;3.38;;
22184;SDS011;11258;52.516;13.318;2023-07-22T09:31:23;3.85;;;2.75;;
22184;SDS011;11258;52.516;13.318;2023-07-22T09:33:50;5.50;;;3.72;;
22184;SDS011;11258;52.516;13.318;2023-07-22T09:36:19;3.95;;;3.30;;
22184;SDS011;11258;52.516;13.318;2023-07-22T09:38:44;6.15;;;3.08;;
22184;SDS011;11258;52.516;13.318;2023-07-22T09:41:10;5.05;;;3.05;;
22184;SDS011;11258;52.516;13.318;2023-07-22T09:43:37;5.00;;;3.10;;
22184;SDS011;11258;52.516;13.318;2023-07-22T09:46:06;3.95;;;2.92;;
22184;SDS011;11258;52.516;13.318;2023-07-22T09:48:40;3.65;;;2.83;;
22184;SDS011;11258;52.516;13.318;2023-07-22T09:51:11;5.93;;;3.53;;
22184;SDS011;11258;52.516;13.318;2023-07-22T09:53:38;5.38;;;3.53;;
22184;SDS011;11258;52.516;13.318;2023-07-22T09:56:08;3.78;;;3.30;;
22184;SDS011;11258;52.516;13.318;2023-07-22T09:58:34;3.92;;;3.05;;
22184;SDS011;11258;52.516;13.318;2023-07-22T10:01:00;5.28;;;2.95;;
22184;SDS011;11258;52.516;13.318;2023-07-22T10:03:28;3.60;;;2.97;;
22184;SDS011;11258;52.516;13.318;2023-07-22T10:05:55;3.90;;;2.80;;
22184;SDS011;11258;52.516;13.318;2023-07-22T10:08:25;6.00;;;3.10;;
22184;SDS011;11258;52.516;13.318;2023-07-22T10:10:55;3.25;;;2.90;;
22184;SDS011;11258;52.516;13.318;2023-07-22T10:13:22;3.95;;;3.05;;
22184;SDS011;11258;52.516;13.318;2023-07-22T10:15:49;5.63;;;2.90;;
22184;SDS011;11258;52.516;13.318;2023-07-22T10:18:15;5.03;;;2.55;;
22184;SDS011;11258;52.516;13.318;2023-07-22T10:20:42;4.75;;;2.88;;
22184;SDS011;11258;52.516;13.318;2023-07-22T10:23:09;5.38;;;2.95;;
22184;SDS011;11258;52.516;13.318;2023-07-22T10:25:38;4.82;;;3.33;;
22184;SDS011;11258;52.516;13.318;2023-07-22T10:28:04;7.22;;;3.25;;
22184;SDS011;11258;52.516;13.318;2023-07-22T10:30:31;4.22;;;2.60;;
22184;SDS011;11258;52.516;13.318;2023-07-22T10:32:58;4.88;;;2.83;;
22184;SDS011;11258;52.516;13.318;2023-07-22T10:37:55;5.07;;;2.88;;
22184;SDS011;11258;52.516;13.318;2023-07-22T10:40:31;3.45;;;2.88;;
22184;SDS011;11258;52.516;13.318;2023-07-22T10:43:04;5.05;;;3.13;;
22184;SDS011;11258;52.516;13.318;2023-07-22T10:45:40;4.65;;;2.92;;
22184;SDS011;11258;52.516;13.318;2023-07-22T10:48:07;5.75;;;3.00;;
22184;SDS011;11258;52.516;13.318;2023-07-22T10:50:44;3.15;;;2.70;;
22184;SDS011;11258;52.516;13.318;2023-07-22T11:01:23;3.33;;;2.95;;
22184;SDS011;11258;52.516;13.318;2023-07-22T11:06:35;5.00;;;3.40;;
22184;SDS011;11258;52.516;13.318;2023-07-22T11:09:02;4.88;;;2.95;;
22184;SDS011;11258;52.516;13.318;2023-07-22T11:14:16;4.78;;;3.80;;
22184;SDS011;11258;52.516;13.318;2023-07-22T11:16:44;6.40;;;3.80;;
22184;SDS011;11258;52.516;13.318;2023-07-22T11:19:12;4.60;;;3.63;;
22184;SDS011;11258;52.516;13.318;2023-07-22T11:21:38;4.95;;;3.33;;
22184;SDS011;11258;52.516;13.318;2023-07-22T11:24:04;4.97;;;3.30;;
22184;SDS011;11258;52.516;13.318;2023-07-22T11:26:32;5.82;;;4.10;;
22184;SDS011;11258;52.516;13.318;2023-07-22T11:28:58;6.88;;;3.97;;
22184;SDS011;11258;52.516;13.318;2023-07-22T11:31:31;5.90;;;4.10;;
22184;SDS011;11258;52.516;13.318;2023-07-22T11:33:58;4.05;;;3.50;;
22184;SDS011;11258;52.516;13.318;2023-07-22T11:36:24;5.25;;;3.40;;
22184;SDS011;11258;52.516;13.318;2023-07-22T11:38:53;6.65;;;4.65;;
22184;SDS011;11258;52.516;13.318;2023-07-22T11:41:25;4.95;;;3.67;;
22184;SDS011;11258;52.516;13.318;2023-07-22T11:43:51;3.90;;;3.35;;
22184;SDS011;11258;52.516;13.318;2023-07-22T11:46:17;6.32;;;3.78;;
22184;SDS011;11258;52.516;13.318;2023-07-22T11:48:49;4.18;;;3.58;;
22184;SDS011;11258;52.516;13.318;2023-07-22T11:51:20;3.97;;;3.45;;
22184;SDS011;11258;52.516;13.318;2023-07-22T11:53:50;7.18;;;4.32;;
22184;SDS011;11258;52.516;13.318;2023-07-22T11:56:23;6.35;;;3.33;;
22184;SDS011;11258;52.516;13.318;2023-07-22T11:58:55;5.25;;;4.20;;
22184;SDS011;11258;52.516;13.318;2023-07-22T12:01:22;5.50;;;3.75;;
22184;SDS011;11258;52.516;13.318;2023-07-22T12:03:48;5.43;;;3.75;;
22184;SDS011;11258;52.516;13.318;2023-07-22T12:06:15;4.60;;;4.07;;
22184;SDS011;11258;52.516;13.318;2023-07-22T12:08:47;6.43;;;3.75;;
22184;SDS011;11258;52.516;13.318;2023-07-22T12:11:23;3.70;;;3.20;;
22184;SDS011;11258;52.516;13.318;2023-07-22T12:16:36;5.13;;;3.75;;
22184;SDS011;11258;52.516;13.318;2023-07-22T12:19:02;5.50;;;4.10;;
22184;SDS011;11258;52.516;13.318;2023-07-22T12:21:28;5.10;;;4.03;;
22184;SDS011;11258;52.516;13.318;2023-07-22T12:23:54;5.53;;;3.50;;
22184;SDS011;11258;52.516;13.318;2023-07-22T12:26:20;4.68;;;3.83;;
22184;SDS011;11258;52.516;13.318;2023-07-22T12:28:46;5.07;;;3.58;;
22184;SDS011;11258;52.516;13.318;2023-07-22T12:31:11;5.38;;;3.75;;
22184;SDS011;11258;52.516;13.318;2023-07-22T12:33:37;5.15;;;3.97;;
22184;SDS011;11258;52.516;13.318;2023-07-22T12:36:03;4.72;;;3.80;;
22184;SDS011;11258;52.516;13.318;2023-07-22T12:38:29;4.97;;;4.30;;
22184;SDS011;11258;52.516;13.318;2023-07-22T12:40:55;5.78;;;4.15;;
22184;SDS011;11258;52.516;13.318;2023-07-22T12:43:21;6.38;;;4.07;;
22184;SDS011;11258;52.516;13.318;2023-07-22T12:45:47;5.85;;;4.68;;
22184;SDS011;11258;52.516;13.318;2023-07-22T12:48:12;6.45;;;3.83;;
22184;SDS011;11258;52.516;13.318;2023-07-22T12:50:38;5.53;;;4.15;;
22184;SDS011;11258;52.516;13.318;2023-07-22T12:53:04;6.25;;;3.83;;
22184;SDS011;11258;52.516;13.318;2023-07-22T12:55:29;5.85;;;4.18;;
22184;SDS011;11258;52.516;13.318;2023-07-22T12:57:55;5.93;;;4.60;;
22184;SDS011;11258;52.516;13.318;2023-07-22T13:00:20;8.13;;;4.78;;
22184;SDS011;11258;52.516;13.318;2023-07-22T13:02:46;5.43;;;4.32;;
22184;SDS011;11258;52.516;13.318;2023-07-22T13:05:12;6.35;;;4.18;;
22184;SDS011;11258;52.516;13.318;2023-07-22T13:07:38;5.20;;;4.07;;
22184;SDS011;11258;52.516;13.318;2023-07-22T13:10:04;6.93;;;4.18;;
22184;SDS011;11258;52.516;13.318;2023-07-22T13:12:34;5.97;;;4.25;;
22184;SDS011;11258;52.516;13.318;2023-07-22T13:14:59;5.22;;;4.13;;
22184;SDS011;11258;52.516;13.318;2023-07-22T13:17:25;5.45;;;4.18;;
22184;SDS011;11258;52.516;13.318;2023-07-22T13:19:51;4.72;;;4.15;;
22184;SDS011;11258;52.516;13.318;2023-07-22T13:22:17;4.70;;;4.18;;
22184;SDS011;11258;52.516;13.318;2023-07-22T13:24:42;5.85;;;3.95;;
22184;SDS011;11258;52.516;13.318;2023-07-22T13:27:08;4.78;;;3.85;;
22184;SDS011;11258;52.516;13.318;2023-07-22T13:29:33;6.18;;;4.45;;
22184;SDS011;11258;52.516;13.318;2023-07-22T13:31:59;4.47;;;3.70;;
22184;SDS011;11258;52.516;13.318;2023-07-22T13:34:25;5.70;;;3.67;;
22184;SDS011;11258;52.516;13.318;2023-07-22T13:36:50;4.90;;;3.88;;
22184;SDS011;11258;52.516;13.318;2023-07-22T13:39:16;6.43;;;4.03;;
22184;SDS011;11258;52.516;13.318;2023-07-22T13:41:42;4.70;;;3.78;;
22184;SDS011;11258;52.516;13.318;2023-07-22T13:44:08;4.75;;;4.13;;
22184;SDS011;11258;52.516;13.318;2023-07-22T13:46:33;5.50;;;3.88;;
22184;SDS011;11258;52.516;13.318;2023-07-22T13:48:59;5.10;;;4.28;;
22184;SDS011;11258;52.516;13.318;2023-07-22T13:51:24;4.25;;;3.60;;
22184;SDS011;11258;52.516;13.318;2023-07-22T13:53:50;6.47;;;4.13;;
22184;SDS011;11258;52.516;13.318;2023-07-22T13:56:17;5.28;;;3.92;;
22184;SDS011;11258;52.516;13.318;2023-07-22T13:58:43;4.97;;;4.28;;
22184;SDS011;11258;52.516;13.318;2023-07-22T14:01:08;5.55;;;4.00;;
22184;SDS011;11258;52.516;13.318;2023-07-22T14:03:34;4.75;;;3.78;;
22184;SDS011;11258;52.516;13.318;2023-07-22T14:06:00;4.70;;;3.92;;
22184;SDS011;11258;52.516;13.318;2023-07-22T14:08:25;4.95;;;4.20;;
22184;SDS011;11258;52.516;13.318;2023-07-22T14:10:51;6.50;;;3.92;;
22184;SDS011;11258;52.516;13.318;2023-07-22T14:13:17;4.05;;;3.42;;
22184;SDS011;11258;52.516;13.318;2023-07-22T14:15:43;5.43;;;3.90;;
22184;SDS011;11258;52.516;13.318;2023-07-22T14:18:08;7.03;;;4.40;;
22184;SDS011;11258;52.516;13.318;2023-07-22T14:20:34;6.07;;;4.10;;
22184;SDS011;11258;52.516;13.318;2023-07-22T14:23:00;5.13;;;4.30;;
22184;SDS011;11258;52.516;13.318;2023-07-22T14:25:26;4.80;;;3.80;;
22184;SDS011;11258;52.516;13.318;2023-07-22T14:27:51;9.05;;;5.93;;
22184;SDS011;11258;52.516;13.318;2023-07-22T14:30:17;7.32;;;4.07;;
22184;SDS011;11258;52.516;13.318;2023-07-22T14:32:43;4.85;;;3.80;;
22184;SDS011;11258;52.516;13.318;2023-07-22T14:35:08;4.70;;;4.20;;
22184;SDS011;11258;52.516;13.318;2023-07-22T14:37:35;6.13;;;4.07;;
22184;SDS011;11258;52.516;13.318;2023-07-22T14:40:02;6.45;;;3.92;;
22184;SDS011;11258;52.516;13.318;2023-07-22T14:42:29;5.43;;;4.30;;
22184;SDS011;11258;52.516;13.318;2023-07-22T14:44:55;5.03;;;4.18;;
22184;SDS011;11258;52.516;13.318;2023-07-22T14:47:21;5.07;;;4.18;;
22184;SDS011;11258;52.516;13.318;2023-07-22T14:49:46;5.63;;;4.35;;